createdAt,value
2018-04-24T00:07:52.923Z,26.10
2018-04-24T00:10:24.845Z,26.10
2018-04-24T00:12:56.978Z,26.10
2018-04-24T00:15:28.335Z,26.20
2018-04-24T00:18:00.379Z,25.80
2018-04-24T00:20:38.506Z,25.20
2018-04-24T00:23:12.030Z,25.20
2018-04-24T00:25:45.044Z,25.00
2018-04-24T00:28:25.772Z,25.10
2018-04-24T00:31:01.689Z,25.10
2018-04-24T00:33:38.568Z,25.10
2018-04-24T00:36:09.954Z,25.00
2018-04-24T00:38:45.780Z,25.10
2018-04-24T00:41:25.398Z,25.20
2018-04-24T00:44:01.977Z,25.30
2018-04-24T00:46:38.256Z,25.60
2018-04-24T00:49:19.235Z,25.50
2018-04-24T00:51:55.938Z,25.50
2018-04-24T00:54:33.866Z,24.60
2018-04-24T00:57:09.909Z,24.60
2018-04-24T01:00:48.348Z,24.50
2018-04-24T01:03:23.493Z,25.00
2018-04-24T01:05:55.275Z,25.20
2018-04-24T01:08:31.318Z,25.40
2018-04-24T13:54:41.976Z,25.70
2018-04-24T13:57:15.072Z,21.00
2018-04-24T13:59:48.850Z,20.90
2018-04-24T14:02:22.098Z,20.90
2018-04-24T14:04:56.540Z,21.20
2018-04-24T14:07:28.160Z,21.80
2018-04-24T14:10:06.570Z,22.10
2018-04-24T14:12:38.494Z,22.00
2018-04-24T14:15:23.385Z,21.60
2018-04-24T14:18:04.611Z,21.90
2018-04-24T14:20:38.992Z,22.50
2018-04-24T14:23:11.696Z,22.60
2018-04-24T14:25:46.266Z,23.30
2018-04-24T14:28:23.643Z,23.20
2018-04-24T14:31:06.408Z,23.40
2018-04-24T14:33:39.145Z,23.50
2018-04-24T14:36:15.950Z,23.20
2018-04-24T14:38:54.441Z,23.20
2018-04-24T14:41:30.758Z,24.60
2018-04-24T14:44:09.549Z,24.00
